Time;durP1;ratioP1;P1;durP2;ratioP2;P2;SDS_P1;SDS_P2;PMS_P1;PMS_P2;Temp;Humidity;BMP_temperature;BMP_pressure;BME280_temperature;BME280_humidity;BME280_pressure;Samples;Min_cycle;Max_cycle;Signal;HPM_P1;HPM_P2
2021/08/25 00:01:34;;;;;;;9.30;6.57;;;;;;;;;;4983490;28;20042;-68
2021/08/25 00:04:00;;;;;;;10.95;6.55;;;;;;;;;;4992361;28;20026;-68
2021/08/25 00:06:30;;;;;;;9.82;6.97;;;;;;;;;;4994021;28;20087;-69
2021/08/25 00:08:57;;;;;;;9.10;6.80;;;;;;;;;;4991490;28;20035;-68
2021/08/25 00:11:24;;;;;;;8.35;6.85;;;;;;;;;;4988269;28;20038;-68
2021/08/25 00:13:50;;;;;;;10.13;6.72;;;;;;;;;;4990907;28;20022;-67
2021/08/25 00:16:17;;;;;;;8.95;7.00;;;;;;;;;;4990645;28;20451;-68
2021/08/25 00:18:43;;;;;;;10.95;6.80;;;;;;;;;;4991134;28;20069;-67
2021/08/25 00:21:09;;;;;;;9.77;6.63;;;;;;;;;;4991285;28;20050;-68
2021/08/25 00:23:35;;;;;;;9.68;7.38;;;;;;;;;;4992006;28;20088;-67
2021/08/25 00:26:01;;;;;;;7.60;6.70;;;;;;;;;;4985630;28;20122;-67
2021/08/25 00:28:27;;;;;;;11.02;7.60;;;;;;;;;;4985584;28;20034;-68
2021/08/25 00:30:53;;;;;;;10.40;7.50;;;;;;;;;;4990399;28;20492;-68
2021/08/25 00:33:22;;;;;;;9.38;7.30;;;;;;;;;;4985249;28;21287;-67
2021/08/25 00:35:48;;;;;;;10.63;8.00;;;;;;;;;;4990622;28;20515;-68
2021/08/25 00:38:14;;;;;;;9.40;7.78;;;;;;;;;;4990997;28;20121;-68
2021/08/25 00:40:40;;;;;;;10.70;7.63;;;;;;;;;;4991449;28;20031;-67
2021/08/25 00:43:07;;;;;;;8.68;7.45;;;;;;;;;;4995457;28;20109;-68
2021/08/25 00:45:40;;;;;;;10.98;7.50;;;;;;;;;;4995885;28;20113;-68
2021/08/25 00:48:06;;;;;;;9.40;7.47;;;;;;;;;;4982249;28;20080;-68
2021/08/25 00:50:33;;;;;;;9.32;7.05;;;;;;;;;;4995265;28;20449;-68
2021/08/25 00:52:59;;;;;;;10.57;7.43;;;;;;;;;;4994700;28;20026;-68
2021/08/25 00:55:25;;;;;;;9.65;7.60;;;;;;;;;;4996776;28;20027;-68
2021/08/25 00:57:51;;;;;;;10.13;7.30;;;;;;;;;;4993806;28;20476;-68
2021/08/25 01:00:18;;;;;;;12.50;6.90;;;;;;;;;;4995041;28;20547;-67
2021/08/25 01:02:57;;;;;;;9.27;7.55;;;;;;;;;;4988491;28;20075;-68
2021/08/25 01:05:24;;;;;;;9.25;7.20;;;;;;;;;;4995477;28;20034;-69
2021/08/25 01:07:50;;;;;;;10.77;6.60;;;;;;;;;;4995365;28;20081;-69
2021/08/25 01:10:22;;;;;;;10.68;7.68;;;;;;;;;;4995191;28;20030;-69
2021/08/25 01:12:48;;;;;;;10.38;7.78;;;;;;;;;;4993586;28;20038;-68
2021/08/25 01:15:14;;;;;;;10.13;7.75;;;;;;;;;;4994081;28;20093;-68
2021/08/25 01:17:40;;;;;;;9.73;7.90;;;;;;;;;;4987124;28;20030;-68
2021/08/25 01:20:10;;;;;;;9.80;7.60;;;;;;;;;;4992715;28;20078;-68
2021/08/25 01:22:39;;;;;;;10.02;7.60;;;;;;;;;;4993430;28;20031;-68
2021/08/25 01:25:05;;;;;;;10.25;7.88;;;;;;;;;;4994647;28;20034;-69
2021/08/25 01:27:33;;;;;;;9.20;8.00;;;;;;;;;;4980962;28;20033;-68
2021/08/25 01:29:59;;;;;;;9.02;7.47;;;;;;;;;;4994627;28;20388;-69
2021/08/25 01:32:26;;;;;;;9.23;8.05;;;;;;;;;;4995010;28;20033;-68
2021/08/25 01:34:53;;;;;;;10.60;8.50;;;;;;;;;;4994017;28;20034;-68
2021/08/25 01:37:20;;;;;;;8.73;7.82;;;;;;;;;;4983676;28;20037;-68
2021/08/25 01:39:46;;;;;;;9.30;8.32;;;;;;;;;;4994678;28;20021;-68
2021/08/25 01:42:13;;;;;;;9.65;8.65;;;;;;;;;;4994721;28;20085;-68
2021/08/25 01:44:39;;;;;;;9.07;8.18;;;;;;;;;;4991281;28;20022;-68
2021/08/25 01:47:05;;;;;;;8.27;7.32;;;;;;;;;;4987410;28;20433;-68
2021/08/25 01:49:31;;;;;;;9.60;8.50;;;;;;;;;;4994680;28;20041;-69
2021/08/25 01:51:58;;;;;;;10.27;8.35;;;;;;;;;;4993621;28;20023;-68
2021/08/25 01:54:25;;;;;;;10.07;7.88;;;;;;;;;;4988080;28;20030;-68
2021/08/25 01:56:51;;;;;;;10.52;8.10;;;;;;;;;;4994264;28;20476;-68
2021/08/25 01:59:17;;;;;;;9.45;7.40;;;;;;;;;;4993857;28;20069;-69
2021/08/25 02:01:43;;;;;;;13.23;8.43;;;;;;;;;;4987763;28;20035;-68
2021/08/25 02:04:09;;;;;;;10.60;8.70;;;;;;;;;;4991132;28;20504;-68
2021/08/25 02:06:35;;;;;;;9.52;8.23;;;;;;;;;;4993994;28;20072;-69
2021/08/25 02:09:01;;;;;;;11.00;8.77;;;;;;;;;;4993727;28;20034;-68
2021/08/25 02:11:27;;;;;;;10.10;7.82;;;;;;;;;;4990740;28;20511;-69
2021/08/25 02:13:54;;;;;;;7.97;6.55;;;;;;;;;;4990900;28;20596;-68
2021/08/25 02:16:22;;;;;;;12.18;5.53;;;;;;;;;;4989011;28;20156;-65
2021/08/25 02:18:48;;;;;;;5.75;5.10;;;;;;;;;;4993942;28;20169;-69
2021/08/25 02:21:14;;;;;;;5.45;4.40;;;;;;;;;;4993716;28;20129;-69
2021/08/25 02:23:43;;;;;;;5.03;4.03;;;;;;;;;;4993817;28;20107;-69
2021/08/25 02:26:16;;;;;;;7.50;4.30;;;;;;;;;;4985494;28;20159;-69
2021/08/25 02:28:42;;;;;;;5.55;3.58;;;;;;;;;;4987389;28;20053;-68
2021/08/25 02:31:08;;;;;;;5.65;3.60;;;;;;;;;;4993935;28;20054;-68
2021/08/25 02:33:34;;;;;;;4.43;3.35;;;;;;;;;;4993891;28;20034;-68
2021/08/25 02:36:00;;;;;;;5.80;3.22;;;;;;;;;;4992262;28;20097;-68
2021/08/25 02:38:26;;;;;;;3.60;3.03;;;;;;;;;;5004065;28;20468;-68
2021/08/25 02:40:52;;;;;;;3.38;3.08;;;;;;;;;;5003393;28;20498;-69
2021/08/25 02:43:18;;;;;;;3.72;3.00;;;;;;;;;;4993569;28;20498;-69
2021/08/25 02:45:44;;;;;;;4.47;3.15;;;;;;;;;;4992953;28;20030;-68
2021/08/25 02:48:10;;;;;;;5.90;3.30;;;;;;;;;;4991958;28;20125;-68
2021/08/25 02:50:36;;;;;;;6.32;3.13;;;;;;;;;;4992788;28;20105;-69
2021/08/25 02:53:02;;;;;;;4.20;3.00;;;;;;;;;;4993109;28;20030;-69
2021/08/25 02:55:28;;;;;;;5.82;2.85;;;;;;;;;;4992994;28;20030;-69
2021/08/25 02:57:58;;;;;;;4.93;3.03;;;;;;;;;;4991399;28;20030;-68
2021/08/25 03:00:24;;;;;;;5.18;3.08;;;;;;;;;;4989681;28;20362;-68
2021/08/25 03:02:50;;;;;;;5.07;3.05;;;;;;;;;;4990021;28;20584;-68
2021/08/25 03:05:16;;;;;;;5.60;3.00;;;;;;;;;;4992083;28;20400;-68
2021/08/25 03:07:43;;;;;;;5.93;3.28;;;;;;;;;;4991333;28;20030;-68
2021/08/25 03:10:09;;;;;;;7.57;3.33;;;;;;;;;;4992797;28;20499;-68
2021/08/25 03:12:35;;;;;;;5.70;3.65;;;;;;;;;;4992948;28;20089;-68
2021/08/25 03:15:01;;;;;;;6.18;3.30;;;;;;;;;;4992945;28;20026;-68
2021/08/25 03:17:27;;;;;;;4.85;3.20;;;;;;;;;;4993147;28;20134;-66
2021/08/25 03:19:53;;;;;;;5.75;3.40;;;;;;;;;;4990567;28;20053;-68
2021/08/25 03:22:19;;;;;;;5.32;3.40;;;;;;;;;;4993011;28;20026;-68
2021/08/25 03:24:45;;;;;;;3.95;3.45;;;;;;;;;;4991506;28;20092;-68
2021/08/25 03:27:12;;;;;;;4.35;3.17;;;;;;;;;;4978839;28;20038;-68
2021/08/25 03:29:38;;;;;;;5.13;3.17;;;;;;;;;;4990322;28;20488;-68
2021/08/25 03:32:04;;;;;;;3.28;2.92;;;;;;;;;;4992560;28;20108;-68
2021/08/25 03:34:30;;;;;;;3.10;2.65;;;;;;;;;;4997372;28;20095;-68
2021/08/25 03:36:56;;;;;;;5.43;2.78;;;;;;;;;;4992902;28;20037;-68
2021/08/25 03:39:22;;;;;;;6.03;2.95;;;;;;;;;;4990966;28;20105;-67
2021/08/25 03:41:48;;;;;;;3.00;2.67;;;;;;;;;;4983553;28;20026;-69
2021/08/25 03:44:14;;;;;;;3.13;2.30;;;;;;;;;;4992412;28;20037;-68
2021/08/25 03:46:40;;;;;;;4.50;2.60;;;;;;;;;;4993606;28;20034;-68
2021/08/25 03:49:06;;;;;;;3.10;2.70;;;;;;;;;;4987879;28;20093;-68
2021/08/25 03:51:32;;;;;;;3.28;2.38;;;;;;;;;;4991998;28;20018;-67
2021/08/25 03:53:58;;;;;;;3.72;2.72;;;;;;;;;;4991432;28;20556;-67
2021/08/25 03:56:27;;;;;;;3.60;2.90;;;;;;;;;;4993755;28;20498;-68
2021/08/25 03:58:53;;;;;;;4.47;2.85;;;;;;;;;;4984290;28;20034;-66
2021/08/25 04:01:19;;;;;;;3.55;2.70;;;;;;;;;;4990287;28;20026;-68
2021/08/25 04:03:45;;;;;;;4.28;2.55;;;;;;;;;;4991081;28;20048;-67
2021/08/25 04:06:18;;;;;;;5.65;2.78;;;;;;;;;;4995821;28;20379;-68
2021/08/25 04:08:54;;;;;;;3.25;2.65;;;;;;;;;;4965484;28;20408;-67
2021/08/25 04:11:21;;;;;;;3.47;2.55;;;;;;;;;;4972029;28;20022;-68
2021/08/25 04:13:47;;;;;;;3.00;2.33;;;;;;;;;;4972938;28;20144;-67
2021/08/25 04:16:13;;;;;;;2.67;2.33;;;;;;;;;;4973913;28;20543;-68
2021/08/25 04:18:39;;;;;;;4.43;2.38;;;;;;;;;;4976538;28;20037;-66
2021/08/25 04:21:05;;;;;;;3.83;2.20;;;;;;;;;;4974598;28;20039;-68
2021/08/25 04:23:31;;;;;;;3.55;2.28;;;;;;;;;;4973936;28;20030;-68
2021/08/25 04:25:57;;;;;;;3.95;2.40;;;;;;;;;;4970020;28;20090;-68
2021/08/25 04:28:23;;;;;;;2.40;2.20;;;;;;;;;;4968497;28;20046;-68
2021/08/25 04:30:49;;;;;;;2.30;2.10;;;;;;;;;;4975117;28;20030;-67
2021/08/25 04:33:15;;;;;;;3.85;1.80;;;;;;;;;;4971473;28;20887;-66
2021/08/25 04:35:41;;;;;;;3.63;1.90;;;;;;;;;;4972313;28;20389;-66
2021/08/25 04:38:07;;;;;;;2.00;1.80;;;;;;;;;;4978514;28;20049;-68
2021/08/25 04:40:36;;;;;;;3.22;2.05;;;;;;;;;;4979440;28;20113;-68
2021/08/25 04:43:02;;;;;;;2.88;2.20;;;;;;;;;;4971413;28;20033;-71
2021/08/25 04:45:28;;;;;;;2.60;1.98;;;;;;;;;;4974457;28;20380;-70
2021/08/25 04:48:00;;;;;;;4.38;1.92;;;;;;;;;;4979515;28;20043;-75
2021/08/25 04:50:29;;;;;;;3.55;1.83;;;;;;;;;;4967017;28;20030;-76
2021/08/25 04:52:55;;;;;;;3.72;2.10;;;;;;;;;;4966252;28;20030;-74
2021/08/25 04:55:21;;;;;;;5.03;2.00;;;;;;;;;;4974566;28;20064;-73
2021/08/25 04:57:47;;;;;;;4.75;2.30;;;;;;;;;;4967957;28;20396;-73
2021/08/25 05:00:13;;;;;;;2.15;1.73;;;;;;;;;;4985723;28;20034;-75
2021/08/25 05:02:41;;;;;;;2.90;1.90;;;;;;;;;;4987353;28;20033;-70
2021/08/25 05:05:08;;;;;;;2.53;2.00;;;;;;;;;;4973100;28;20027;-77
2021/08/25 05:07:34;;;;;;;3.10;2.38;;;;;;;;;;4988688;28;20038;-65
2021/08/25 05:10:01;;;;;;;3.45;2.10;;;;;;;;;;4984687;28;20050;-75
2021/08/25 05:12:27;;;;;;;5.10;2.22;;;;;;;;;;4986750;28;20019;-73
2021/08/25 05:14:53;;;;;;;2.40;2.17;;;;;;;;;;4987970;28;20396;-76
2021/08/25 05:17:19;;;;;;;6.30;2.30;;;;;;;;;;4978949;28;20083;-68
2021/08/25 05:19:45;;;;;;;5.65;2.30;;;;;;;;;;4975952;28;20098;-67
2021/08/25 05:22:11;;;;;;;6.05;2.47;;;;;;;;;;4975716;28;20027;-67
2021/08/25 05:24:37;;;;;;;4.18;2.50;;;;;;;;;;4976031;28;20086;-71
2021/08/25 05:27:04;;;;;;;4.88;2.38;;;;;;;;;;4972066;28;20043;-76
2021/08/25 05:29:32;;;;;;;4.97;2.20;;;;;;;;;;4980199;28;20030;-75
2021/08/25 05:32:20;;;;;;;3.70;2.20;;;;;;;;;;4984053;28;20047;-68
2021/08/25 05:34:47;;;;;;;2.95;2.20;;;;;;;;;;4995665;28;20010;-71
2021/08/25 05:37:13;;;;;;;4.65;2.55;;;;;;;;;;4995368;28;20019;-70
2021/08/25 05:39:39;;;;;;;3.67;2.30;;;;;;;;;;4992061;28;20046;-71
2021/08/25 05:42:05;;;;;;;3.33;2.40;;;;;;;;;;4970428;28;20062;-69
2021/08/25 05:44:31;;;;;;;3.85;2.38;;;;;;;;;;4974858;28;20022;-68
2021/08/25 05:46:57;;;;;;;3.15;2.53;;;;;;;;;;4962677;28;20087;-72
2021/08/25 05:49:24;;;;;;;5.72;2.50;;;;;;;;;;4969084;28;20039;-76
2021/08/25 05:51:50;;;;;;;3.75;2.25;;;;;;;;;;4975148;28;20033;-74
2021/08/25 05:54:16;;;;;;;4.00;2.38;;;;;;;;;;4972154;28;20030;-73
2021/08/25 05:56:42;;;;;;;4.45;2.50;;;;;;;;;;4973554;28;20477;-73
2021/08/25 05:59:11;;;;;;;5.28;2.58;;;;;;;;;;4974271;28;20105;-75
2021/08/25 06:01:37;;;;;;;3.10;2.28;;;;;;;;;;4973502;28;20151;-74
2021/08/25 06:04:03;;;;;;;4.32;2.30;;;;;;;;;;4974547;28;20182;-73
2021/08/25 06:06:40;;;;;;;6.88;2.95;;;;;;;;;;4974162;28;20041;-74
2021/08/25 06:09:11;;;;;;;3.47;2.50;;;;;;;;;;4958979;28;20110;-74
2021/08/25 06:11:39;;;;;;;3.47;2.53;;;;;;;;;;4953227;28;20145;-68
2021/08/25 06:14:05;;;;;;;5.25;2.65;;;;;;;;;;4979678;28;20090;-74
2021/08/25 06:16:31;;;;;;;3.30;2.45;;;;;;;;;;4976793;28;20384;-75
2021/08/25 06:19:00;;;;;;;6.18;2.80;;;;;;;;;;4977827;28;20030;-76
2021/08/25 06:21:26;;;;;;;3.50;2.90;;;;;;;;;;4965445;28;20051;-74
2021/08/25 06:23:52;;;;;;;3.47;2.72;;;;;;;;;;4965801;28;20392;-75
2021/08/25 06:26:21;;;;;;;4.32;2.60;;;;;;;;;;4966700;28;20031;-74
2021/08/25 06:28:47;;;;;;;4.97;3.00;;;;;;;;;;4969742;28;20089;-74
2021/08/25 06:31:13;;;;;;;3.88;3.00;;;;;;;;;;4975065;28;20110;-72
2021/08/25 06:33:39;;;;;;;4.60;2.90;;;;;;;;;;4974322;28;20035;-74
2021/08/25 06:36:05;;;;;;;4.75;2.83;;;;;;;;;;4974377;28;20506;-73
2021/08/25 06:38:41;;;;;;;5.28;3.20;;;;;;;;;;4992055;28;20058;-69
2021/08/25 06:41:12;;;;;;;6.45;3.33;;;;;;;;;;4958626;28;20400;-76
2021/08/25 06:43:40;;;;;;;6.78;3.08;;;;;;;;;;4977327;28;20113;-76
2021/08/25 06:46:06;;;;;;;4.03;3.03;;;;;;;;;;4974910;28;20029;-70
2021/08/25 06:48:35;;;;;;;4.68;3.10;;;;;;;;;;4966865;28;20066;-68
2021/08/25 06:51:01;;;;;;;8.27;4.13;;;;;;;;;;4974177;28;20481;-65
2021/08/25 06:53:29;;;;;;;5.30;3.30;;;;;;;;;;4974480;28;20047;-74
2021/08/25 06:55:55;;;;;;;6.22;3.22;;;;;;;;;;4973017;28;20429;-73
2021/08/25 06:58:24;;;;;;;5.35;3.60;;;;;;;;;;4970575;28;20110;-69
2021/08/25 07:00:51;;;;;;;6.68;3.80;;;;;;;;;;4973050;28;20480;-70
2021/08/25 07:03:36;;;;;;;3.70;3.10;;;;;;;;;;4973948;28;20031;-75
2021/08/25 07:06:02;;;;;;;5.72;3.75;;;;;;;;;;4971817;28;20030;-76
2021/08/25 07:08:29;;;;;;;7.05;3.40;;;;;;;;;;4982672;28;20093;-74
2021/08/25 07:10:55;;;;;;;4.47;3.60;;;;;;;;;;4978718;28;20106;-74
2021/08/25 07:13:23;;;;;;;5.22;3.20;;;;;;;;;;4988879;28;20058;-70
2021/08/25 07:15:49;;;;;;;4.90;3.30;;;;;;;;;;4976860;28;20044;-76
2021/08/25 07:18:15;;;;;;;3.95;2.80;;;;;;;;;;4972384;28;20090;-66
2021/08/25 07:20:41;;;;;;;5.90;3.20;;;;;;;;;;4973128;28;20057;-63
2021/08/25 07:23:07;;;;;;;4.57;3.20;;;;;;;;;;4973231;28;20031;-67
2021/08/25 07:25:39;;;;;;;5.75;3.25;;;;;;;;;;4971225;28;20033;-69
2021/08/25 07:28:05;;;;;;;6.32;3.83;;;;;;;;;;4972429;28;20117;-67
2021/08/25 07:30:31;;;;;;;4.38;3.40;;;;;;;;;;4972072;28;20035;-65
2021/08/25 07:32:57;;;;;;;4.20;3.25;;;;;;;;;;4973197;28;20034;-69
2021/08/25 07:35:24;;;;;;;3.53;2.92;;;;;;;;;;4973741;28;20034;-65
2021/08/25 07:37:50;;;;;;;3.50;3.20;;;;;;;;;;4972561;28;20034;-67
2021/08/25 07:40:16;;;;;;;4.90;2.97;;;;;;;;;;4972826;28;20110;-72
2021/08/25 07:42:54;;;;;;;6.82;3.25;;;;;;;;;;4980405;28;20011;-75
2021/08/25 07:45:23;;;;;;;6.15;3.40;;;;;;;;;;4980293;28;20035;-74
2021/08/25 07:47:51;;;;;;;5.45;3.20;;;;;;;;;;4986232;28;20109;-76
2021/08/25 07:50:19;;;;;;;4.95;3.20;;;;;;;;;;4956797;28;20042;-76
2021/08/25 07:52:45;;;;;;;5.82;3.60;;;;;;;;;;4977337;28;20105;-69
2021/08/25 07:55:11;;;;;;;7.60;3.80;;;;;;;;;;4977060;28;20384;-70
2021/08/25 07:57:38;;;;;;;5.22;3.45;;;;;;;;;;4977634;28;20058;-73
2021/08/25 08:00:04;;;;;;;5.35;3.30;;;;;;;;;;4967603;28;20433;-66
2021/08/25 08:02:30;;;;;;;5.13;3.67;;;;;;;;;;4980171;28;20034;-74
2021/08/25 08:04:57;;;;;;;9.35;4.28;;;;;;;;;;4976721;28;20063;-74
2021/08/25 08:07:27;;;;;;;5.28;3.60;;;;;;;;;;4974207;28;20147;-73
2021/08/25 08:09:53;;;;;;;4.32;3.53;;;;;;;;;;4982450;28;20026;-76
2021/08/25 08:13:15;;;;;;;4.88;3.30;;;;;;;;;;4987059;28;20030;-72
2021/08/25 08:15:39;;;;;;;5.70;3.80;;;;;;;;;;4984517;28;20314;-69
2021/08/25 08:18:11;;;;;;;6.78;3.97;;;;;;;;;;4965157;28;20090;-76
2021/08/25 08:20:38;;;;;;;5.50;4.13;;;;;;;;;;4976645;28;20046;-72
2021/08/25 08:23:33;;;;;;;7.68;4.72;;;;;;;;;;4958205;28;20039;-70
2021/08/25 08:26:06;;;;;;;9.30;5.05;;;;;;;;;;4967306;28;20034;-69
2021/08/25 08:28:32;;;;;;;6.28;4.30;;;;;;;;;;4987764;28;20477;-72
2021/08/25 08:31:01;;;;;;;6.43;4.80;;;;;;;;;;4982420;28;20031;-73
2021/08/25 08:33:27;;;;;;;8.63;4.45;;;;;;;;;;4963405;28;20031;-75
2021/08/25 08:35:53;;;;;;;6.65;4.53;;;;;;;;;;4987157;28;20480;-77
2021/08/25 08:38:20;;;;;;;5.85;3.95;;;;;;;;;;4980536;28;20038;-76
2021/08/25 08:41:04;;;;;;;6.30;4.18;;;;;;;;;;4984716;28;20042;-69
2021/08/25 08:44:09;;;;;;;;;;;;;;;;;;;;;
2021/08/25 08:47:22;;;;;;;;;;;;;;;;;;;;;
2021/08/25 08:49:48;;;;;;;7.97;6.07;;;;;;;;;;4887333;29;20421;-76
2021/08/25 08:52:18;;;;;;;8.93;6.30;;;;;;;;;;4894382;29;20033;-71
2021/08/25 08:54:57;;;;;;;7.68;6.47;;;;;;;;;;4893851;29;20045;-73
2021/08/25 08:57:42;;;;;;;8.27;5.70;;;;;;;;;;4885190;29;20074;-69
2021/08/25 09:00:08;;;;;;;7.00;4.65;;;;;;;;;;4885206;29;20055;-70
2021/08/25 09:02:45;;;;;;;7.20;5.28;;;;;;;;;;4884368;29;20052;-77
2021/08/25 09:05:22;;;;;;;6.72;5.20;;;;;;;;;;4884933;29;20029;-73
2021/08/25 09:08:00;;;;;;;7.28;5.00;;;;;;;;;;4878915;29;20799;-78
2021/08/25 09:10:40;;;;;;;7.18;4.43;;;;;;;;;;4914288;29;20053;-71
2021/08/25 09:13:09;;;;;;;5.32;4.38;;;;;;;;;;4897509;29;20141;-68
2021/08/25 09:15:37;;;;;;;7.20;4.45;;;;;;;;;;4894229;29;20037;-73
2021/08/25 09:18:04;;;;;;;7.32;4.40;;;;;;;;;;4880693;29;20124;-68
2021/08/25 09:20:31;;;;;;;6.55;4.85;;;;;;;;;;4895013;29;20089;-71
2021/08/25 09:23:11;;;;;;;6.35;4.40;;;;;;;;;;4905780;29;20040;-72
2021/08/25 09:25:37;;;;;;;7.57;4.78;;;;;;;;;;4938643;29;20192;-69
2021/08/25 09:28:04;;;;;;;5.80;4.80;;;;;;;;;;4936093;29;20063;-64
2021/08/25 09:30:49;;;;;;;6.05;4.60;;;;;;;;;;4934643;29;20039;-68
2021/08/25 09:33:15;;;;;;;8.18;5.00;;;;;;;;;;4938172;29;20035;-75
2021/08/25 09:35:41;;;;;;;8.57;5.50;;;;;;;;;;4933551;28;20375;-74
2021/08/25 09:38:18;;;;;;;6.65;4.65;;;;;;;;;;4976541;28;20027;-73
2021/08/25 09:40:50;;;;;;;6.20;5.03;;;;;;;;;;4966788;28;20034;-73
2021/08/25 09:43:33;;;;;;;5.93;4.53;;;;;;;;;;4974813;28;20022;-69
2021/08/25 09:46:12;;;;;;;7.78;4.70;;;;;;;;;;4974850;28;20421;-65
2021/08/25 09:48:40;;;;;;;8.10;4.95;;;;;;;;;;4975007;28;20038;-69
2021/08/25 09:51:07;;;;;;;6.13;4.82;;;;;;;;;;4973340;28;20059;-74
2021/08/25 09:53:33;;;;;;;6.90;5.03;;;;;;;;;;4975065;28;20026;-72
2021/08/25 09:55:59;;;;;;;7.60;5.32;;;;;;;;;;4973422;28;20027;-72
2021/08/25 10:01:54;;;;;;;7.05;4.90;;;;;;;;;;4919450;29;20020;-71
2021/08/25 10:04:20;;;;;;;6.82;4.65;;;;;;;;;;4917109;29;20043;-66
2021/08/25 10:07:16;;;;;;;6.15;4.70;;;;;;;;;;4918371;29;20024;-71
2021/08/25 10:09:47;;;;;;;7.32;5.07;;;;;;;;;;4939959;29;20459;-72
2021/08/25 10:12:13;;;;;;;7.53;4.60;;;;;;;;;;4919775;29;20059;-72
2021/08/25 10:14:40;;;;;;;6.50;5.03;;;;;;;;;;4916159;29;20046;-74
2021/08/25 10:17:06;;;;;;;6.60;5.20;;;;;;;;;;4917355;29;20044;-73
2021/08/25 10:19:39;;;;;;;7.47;5.32;;;;;;;;;;4917904;29;20028;-78
2021/08/25 10:22:14;;;;;;;8.48;5.43;;;;;;;;;;4901728;29;20032;-76
2021/08/25 10:24:49;;;;;;;7.10;5.57;;;;;;;;;;4925292;29;20506;-74
2021/08/25 10:27:18;;;;;;;5.88;5.28;;;;;;;;;;4922979;29;20076;-74
2021/08/25 10:30:03;;;;;;;6.93;5.10;;;;;;;;;;4923022;29;20075;-68
2021/08/25 10:32:36;;;;;;;7.05;6.15;;;;;;;;;;4927529;29;20075;-72
2021/08/25 10:35:22;;;;;;;7.07;5.95;;;;;;;;;;4917284;29;20036;-77
2021/08/25 10:37:49;;;;;;;8.50;5.90;;;;;;;;;;4964621;28;20035;-75
2021/08/25 10:40:16;;;;;;;8.75;6.80;;;;;;;;;;4977775;28;20035;-76
2021/08/25 10:42:46;;;;;;;8.77;6.07;;;;;;;;;;4982570;28;20030;-63
2021/08/25 10:45:13;;;;;;;10.15;7.00;;;;;;;;;;4974776;28;20084;-66
2021/08/25 10:47:59;;;;;;;9.32;6.82;;;;;;;;;;4976854;28;20038;-77
2021/08/25 10:51:01;;;;;;;9.10;7.40;;;;;;;;;;4982632;28;20030;-70
2021/08/25 10:53:31;;;;;;;8.05;6.72;;;;;;;;;;4982196;28;20034;-66
2021/08/25 10:56:06;;;;;;;9.68;7.70;;;;;;;;;;4971970;28;20030;-70
2021/08/25 10:58:45;;;;;;;7.85;7.05;;;;;;;;;;4969913;28;20105;-66
2021/08/25 11:01:45;;;;;;;11.45;7.63;;;;;;;;;;4969171;28;20053;-68
2021/08/25 11:04:17;;;;;;;10.02;7.72;;;;;;;;;;4898462;29;20537;-67
2021/08/25 11:06:54;;;;;;;10.30;8.25;;;;;;;;;;4898665;29;20036;-75
2021/08/25 11:09:20;;;;;;;11.57;8.57;;;;;;;;;;4907195;29;20517;-65
2021/08/25 11:11:47;;;;;;;10.80;7.68;;;;;;;;;;4902054;29;20028;-74
2021/08/25 11:14:33;;;;;;;9.85;7.80;;;;;;;;;;4899720;29;20188;-74
2021/08/25 11:17:04;;;;;;;13.40;8.10;;;;;;;;;;4903887;29;20035;-69
2021/08/25 11:19:32;;;;;;;8.75;7.70;;;;;;;;;;4895819;29;20748;-71
2021/08/25 11:21:59;;;;;;;8.38;7.47;;;;;;;;;;4899236;29;20520;-72
2021/08/25 11:24:33;;;;;;;7.97;7.13;;;;;;;;;;4894979;29;20032;-73
2021/08/25 11:26:59;;;;;;;8.55;7.65;;;;;;;;;;4894106;29;20526;-71
2021/08/25 11:29:25;;;;;;;9.30;7.43;;;;;;;;;;4895066;29;20148;-72
2021/08/25 11:31:52;;;;;;;8.50;7.60;;;;;;;;;;4894957;29;20033;-72
2021/08/25 11:34:19;;;;;;;7.95;7.15;;;;;;;;;;4907484;29;20036;-72
2021/08/25 11:36:52;;;;;;;8.45;7.32;;;;;;;;;;4895052;29;20478;-73
2021/08/25 11:39:20;;;;;;;8.82;7.93;;;;;;;;;;4896128;29;20049;-68
2021/08/25 11:41:47;;;;;;;10.27;8.15;;;;;;;;;;4962748;28;20052;-70
2021/08/25 11:44:13;;;;;;;11.00;8.02;;;;;;;;;;4972575;28;20019;-69
2021/08/25 11:46:39;;;;;;;10.30;7.68;;;;;;;;;;4970531;28;20114;-65
2021/08/25 11:49:06;;;;;;;8.75;7.57;;;;;;;;;;4971438;28;20043;-70
2021/08/25 11:51:32;;;;;;;12.45;8.55;;;;;;;;;;4971696;28;20030;-68
2021/08/25 11:53:58;;;;;;;10.95;7.80;;;;;;;;;;4971532;28;20027;-73
2021/08/25 11:56:25;;;;;;;10.35;7.85;;;;;;;;;;4974487;28;20027;-68
2021/08/25 11:59:07;;;;;;;11.10;7.22;;;;;;;;;;4967755;28;20388;-73
2021/08/25 12:01:33;;;;;;;9.50;8.27;;;;;;;;;;4971653;28;20026;-72
2021/08/25 12:03:59;;;;;;;10.68;8.25;;;;;;;;;;4970771;28;20027;-69
2021/08/25 12:06:43;;;;;;;10.07;8.70;;;;;;;;;;4969765;28;20429;-72
2021/08/25 12:09:10;;;;;;;8.90;7.88;;;;;;;;;;4971566;28;20058;-72
2021/08/25 12:11:55;;;;;;;9.77;8.23;;;;;;;;;;4971404;28;20354;-72
2021/08/25 12:14:21;;;;;;;8.63;7.68;;;;;;;;;;4972899;28;20045;-73
2021/08/25 12:17:04;;;;;;;9.18;7.75;;;;;;;;;;4964362;28;20035;-73
2021/08/25 12:19:33;;;;;;;10.38;9.07;;;;;;;;;;4958700;28;20031;-73
2021/08/25 12:22:18;;;;;;;10.07;7.80;;;;;;;;;;4960011;28;20095;-72
2021/08/25 12:24:46;;;;;;;9.93;8.10;;;;;;;;;;4965077;28;20054;-70
2021/08/25 12:27:12;;;;;;;8.38;7.45;;;;;;;;;;4955488;28;20114;-73
2021/08/25 12:29:41;;;;;;;9.90;8.32;;;;;;;;;;4972183;28;20098;-72
2021/08/25 12:32:07;;;;;;;8.73;7.80;;;;;;;;;;4966263;28;20488;-74
2021/08/25 12:34:34;;;;;;;10.40;8.38;;;;;;;;;;4973549;28;20058;-72
2021/08/25 12:37:01;;;;;;;9.95;7.95;;;;;;;;;;4973948;28;20026;-73
2021/08/25 12:39:28;;;;;;;9.02;7.80;;;;;;;;;;4975063;28;20433;-68
2021/08/25 12:41:55;;;;;;;9.75;8.50;;;;;;;;;;4976800;28;20031;-72
2021/08/25 12:44:22;;;;;;;9.85;8.57;;;;;;;;;;4971746;28;20050;-71
2021/08/25 12:46:52;;;;;;;10.38;8.02;;;;;;;;;;4976425;28;20488;-71
2021/08/25 12:49:19;;;;;;;10.30;7.95;;;;;;;;;;4975491;28;20066;-72
2021/08/25 12:51:45;;;;;;;10.00;8.30;;;;;;;;;;4970171;28;20034;-70
2021/08/25 12:54:11;;;;;;;10.85;8.80;;;;;;;;;;4975973;28;20062;-73
2021/08/25 12:56:39;;;;;;;14.52;9.05;;;;;;;;;;4976405;28;20027;-73
2021/08/25 12:59:08;;;;;;;11.95;8.68;;;;;;;;;;4976253;28;20860;-73
2021/08/25 13:01:34;;;;;;;9.60;8.10;;;;;;;;;;4975045;28;20019;-73
2021/08/25 13:04:02;;;;;;;11.98;8.93;;;;;;;;;;4976261;28;20062;-73
2021/08/25 13:06:29;;;;;;;12.55;9.80;;;;;;;;;;4960947;28;20054;-73
2021/08/25 13:08:55;;;;;;;14.95;9.40;;;;;;;;;;4975850;28;20039;-73
2021/08/25 13:11:21;;;;;;;15.15;9.25;;;;;;;;;;4965823;28;20026;-71
2021/08/25 13:13:47;;;;;;;23.98;10.13;;;;;;;;;;4975986;28;20030;-72
2021/08/25 13:16:14;;;;;;;15.95;9.90;;;;;;;;;;4977509;28;20027;-70
2021/08/25 13:18:40;;;;;;;13.38;9.20;;;;;;;;;;4975296;28;20122;-65
2021/08/25 13:21:06;;;;;;;12.13;9.20;;;;;;;;;;4975192;28;20058;-64
2021/08/25 13:23:32;;;;;;;10.98;8.07;;;;;;;;;;4974606;28;20027;-65
2021/08/25 13:25:58;;;;;;;12.55;8.27;;;;;;;;;;4971139;28;20499;-70
2021/08/25 13:28:24;;;;;;;11.75;8.43;;;;;;;;;;4970932;28;20393;-78
2021/08/25 13:30:50;;;;;;;12.25;8.23;;;;;;;;;;4981507;28;20042;-68
2021/08/25 13:33:17;;;;;;;16.75;9.07;;;;;;;;;;4961611;28;20027;-68
2021/08/25 13:35:43;;;;;;;11.32;8.63;;;;;;;;;;4974256;28;20066;-64
2021/08/25 13:38:09;;;;;;;11.60;9.15;;;;;;;;;;4975185;28;20109;-72
2021/08/25 13:40:36;;;;;;;9.65;8.07;;;;;;;;;;4981972;28;20027;-68
2021/08/25 13:43:02;;;;;;;24.23;10.90;;;;;;;;;;4971807;28;20084;-69
2021/08/25 13:45:28;;;;;;;16.77;8.43;;;;;;;;;;4971015;28;20031;-66
2021/08/25 13:47:55;;;;;;;13.63;8.52;;;;;;;;;;4973892;28;20038;-70
2021/08/25 13:50:21;;;;;;;12.45;8.23;;;;;;;;;;4974808;28;20034;-65
2021/08/25 13:52:47;;;;;;;18.23;9.50;;;;;;;;;;4964009;28;20110;-65
2021/08/25 13:55:13;;;;;;;12.85;7.78;;;;;;;;;;4955184;28;20106;-66
2021/08/25 13:57:39;;;;;;;10.73;7.43;;;;;;;;;;4956243;28;20148;-66
2021/08/25 14:00:08;;;;;;;12.43;7.95;;;;;;;;;;4972445;28;20405;-67
2021/08/25 14:02:34;;;;;;;11.00;8.15;;;;;;;;;;4973938;28;20033;-65
2021/08/25 14:05:00;;;;;;;9.63;8.48;;;;;;;;;;4972906;28;20066;-67
2021/08/25 14:07:26;;;;;;;13.63;8.70;;;;;;;;;;4974846;28;20449;-72
2021/08/25 14:09:53;;;;;;;14.70;8.60;;;;;;;;;;4974199;28;20086;-64
2021/08/25 14:12:19;;;;;;;10.40;8.20;;;;;;;;;;4974113;28;20026;-69
2021/08/25 14:14:45;;;;;;;8.82;7.25;;;;;;;;;;4972448;28;20038;-63
2021/08/25 14:17:11;;;;;;;16.52;7.90;;;;;;;;;;4974312;28;20027;-70
2021/08/25 14:19:37;;;;;;;11.07;7.63;;;;;;;;;;4975337;28;20050;-68
2021/08/25 14:22:03;;;;;;;9.90;7.63;;;;;;;;;;4974475;28;20038;-73
2021/08/25 14:24:30;;;;;;;11.40;7.97;;;;;;;;;;4974366;28;20023;-73
2021/08/25 14:26:56;;;;;;;12.60;8.00;;;;;;;;;;4961095;28;20031;-74
2021/08/25 14:29:22;;;;;;;14.23;8.25;;;;;;;;;;4970065;28;20845;-63
2021/08/25 14:31:48;;;;;;;10.80;7.50;;;;;;;;;;4956206;28;20062;-67
2021/08/25 14:34:14;;;;;;;13.48;7.90;;;;;;;;;;4973638;28;20077;-63
2021/08/25 14:36:40;;;;;;;10.45;8.27;;;;;;;;;;4973409;28;20027;-65
2021/08/25 14:39:06;;;;;;;9.68;8.38;;;;;;;;;;4979160;28;20088;-72
2021/08/25 14:41:33;;;;;;;14.63;8.73;;;;;;;;;;4974386;28;20030;-70
2021/08/25 14:43:59;;;;;;;13.18;8.45;;;;;;;;;;4966753;28;20401;-63
2021/08/25 14:46:26;;;;;;;12.80;8.05;;;;;;;;;;4959342;28;20031;-67
2021/08/25 14:48:54;;;;;;;11.90;7.88;;;;;;;;;;4973660;28;20500;-65
2021/08/25 14:51:20;;;;;;;15.40;7.18;;;;;;;;;;4973984;28;20395;-66
2021/08/25 14:53:47;;;;;;;12.35;7.65;;;;;;;;;;4973819;28;20027;-64